createdAt,value
2023-01-09T00:00:53.513Z,4.00
2023-01-09T00:03:20.823Z,4.10
2023-01-09T00:05:47.629Z,4.00
2023-01-09T00:08:14.852Z,4.00
2023-01-09T00:10:42.113Z,3.90
2023-01-09T00:13:12.704Z,4.10
2023-01-09T00:15:41.573Z,4.00
2023-01-09T00:18:09.195Z,3.90
2023-01-09T00:20:36.729Z,3.80
2023-01-09T00:23:04.125Z,4.00
2023-01-09T00:25:30.932Z,4.00
2023-01-09T00:27:58.368Z,4.10
2023-01-09T00:30:25.834Z,3.90
2023-01-09T00:32:54.247Z,3.90
2023-01-09T00:35:23.997Z,3.90
2023-01-09T00:37:50.773Z,4.00
2023-01-09T00:40:19.105Z,4.10
2023-01-09T00:42:53.812Z,4.10
2023-01-09T00:45:29.023Z,4.10
2023-01-09T00:48:02.447Z,4.00
2023-01-09T00:50:33.491Z,3.90
2023-01-09T00:53:03.725Z,4.00
2023-01-09T00:55:31.008Z,3.80
2023-01-09T00:57:57.898Z,3.80
2023-01-09T01:00:25.113Z,3.80
2023-01-09T01:02:51.983Z,3.80
2023-01-09T01:05:37.841Z,3.80
2023-01-09T01:08:14.556Z,3.90
2023-01-09T01:10:42.389Z,3.80
2023-01-09T01:13:09.268Z,3.80
2023-01-09T01:15:39.395Z,3.80
2023-01-09T01:18:07.259Z,3.80
2023-01-09T01:20:34.418Z,3.80
2023-01-09T01:23:01.881Z,3.60
2023-01-09T01:25:28.776Z,3.60
2023-01-09T01:27:55.854Z,3.60
2023-01-09T01:30:24.761Z,3.80
2023-01-09T01:32:52.030Z,3.70
2023-01-09T01:35:19.059Z,3.80
2023-01-09T01:37:46.256Z,4.00
2023-01-09T01:40:13.195Z,4.10
2023-01-09T01:42:49.220Z,4.20
2023-01-09T01:45:15.971Z,4.30
2023-01-09T01:47:58.855Z,4.20
2023-01-09T01:50:40.341Z,4.30
2023-01-09T01:53:14.520Z,4.20
2023-01-09T01:55:55.217Z,4.20
2023-01-09T01:58:22.610Z,4.00
2023-01-09T02:00:50.875Z,3.80
2023-01-09T02:03:21.972Z,3.90
2023-01-09T02:05:49.551Z,3.60
2023-01-09T02:08:17.536Z,3.60
2023-01-09T02:10:45.563Z,3.60
2023-01-09T02:13:13.484Z,3.70
2023-01-09T02:15:56.013Z,3.60
2023-01-09T02:18:35.123Z,3.50
2023-01-09T02:21:15.012Z,3.40
2023-01-09T02:24:40.637Z,3.50
2023-01-09T02:27:35.205Z,3.60
2023-01-09T02:30:33.337Z,3.60
2023-01-09T02:33:06.490Z,3.60
2023-01-09T02:35:45.468Z,3.60
2023-01-09T02:38:34.755Z,3.50
2023-01-09T02:41:09.044Z,3.50
2023-01-09T02:43:35.828Z,3.50
2023-01-09T02:46:02.650Z,3.50
2023-01-09T02:48:30.827Z,3.50
2023-01-09T02:51:17.928Z,3.50
2023-01-09T02:53:52.004Z,3.40
2023-01-09T02:57:06.741Z,3.50
2023-01-09T02:59:47.556Z,3.40
2023-01-09T03:02:38.725Z,3.50
2023-01-09T03:05:36.164Z,3.50
2023-01-09T03:08:07.817Z,3.50
2023-01-09T03:11:02.371Z,3.50
2023-01-09T03:13:42.434Z,3.60
2023-01-09T03:16:13.007Z,3.60
2023-01-09T03:18:41.405Z,3.60
2023-01-09T03:21:10.113Z,3.60
2023-01-09T03:23:47.947Z,3.50
2023-01-09T03:26:15.206Z,3.60
2023-01-09T03:28:42.675Z,3.60
2023-01-09T03:31:10.368Z,3.60
2023-01-09T03:33:37.132Z,3.90
2023-01-09T03:36:04.676Z,3.60
2023-01-09T03:38:31.525Z,3.60
2023-01-09T03:40:58.388Z,3.50
2023-01-09T03:43:25.796Z,3.50
2023-01-09T03:45:55.309Z,3.60
2023-01-09T03:48:30.478Z,3.60
2023-01-09T03:50:58.232Z,3.60
2023-01-09T03:53:27.583Z,3.60
2023-01-09T03:55:57.343Z,3.60
2023-01-09T03:58:25.359Z,3.60
2023-01-09T04:00:57.767Z,3.70
2023-01-09T04:03:24.662Z,3.70
2023-01-09T04:05:54.399Z,3.70
2023-01-09T04:08:21.936Z,3.80
2023-01-09T04:10:50.804Z,3.80
2023-01-09T04:13:18.105Z,3.80
2023-01-09T04:15:45.285Z,3.80
2023-01-09T04:18:12.107Z,3.90
2023-01-09T04:20:39.033Z,3.90
2023-01-09T04:23:06.670Z,3.70
2023-01-09T04:25:33.995Z,3.90
2023-01-09T04:28:01.360Z,3.90
2023-01-09T04:30:28.192Z,4.00
2023-01-09T04:32:55.030Z,3.90
2023-01-09T04:35:22.168Z,3.90
2023-01-09T04:37:49.000Z,3.90
2023-01-09T04:40:17.113Z,4.00
2023-01-09T04:42:43.908Z,4.00
2023-01-09T04:45:11.903Z,4.00
2023-01-09T04:47:39.027Z,4.00
2023-01-09T04:50:06.224Z,4.00
2023-01-09T04:55:08.343Z,4.00
2023-01-09T04:57:35.946Z,3.90
2023-01-09T05:00:04.224Z,3.90
2023-01-09T05:02:31.184Z,3.90
2023-01-09T05:04:58.036Z,3.90
2023-01-09T05:07:24.892Z,3.80
2023-01-09T05:09:52.353Z,3.80
2023-01-09T05:12:19.222Z,3.80
2023-01-09T05:14:46.402Z,3.70
2023-01-09T05:17:13.228Z,3.60
2023-01-09T05:19:40.598Z,3.70
2023-01-09T05:22:07.869Z,3.60
2023-01-09T05:24:35.265Z,3.60
2023-01-09T05:27:02.869Z,3.50
2023-01-09T05:29:30.724Z,3.50
2023-01-09T05:31:58.743Z,3.30
2023-01-09T05:34:25.596Z,3.30
2023-01-09T05:36:54.284Z,3.20
2023-01-09T05:39:24.754Z,3.20
2023-01-09T05:41:53.167Z,3.30
2023-01-09T05:44:22.428Z,3.30
2023-01-09T05:46:50.659Z,3.20
2023-01-09T05:52:05.567Z,3.20
2023-01-09T05:54:32.385Z,3.20
2023-01-09T05:57:05.205Z,3.30
2023-01-09T05:59:33.871Z,3.30
2023-01-09T06:02:01.193Z,3.40
2023-01-09T06:04:30.033Z,3.40
2023-01-09T06:06:57.480Z,3.50
2023-01-09T06:09:24.740Z,3.50
2023-01-09T06:11:51.949Z,3.60
2023-01-09T06:14:18.775Z,3.40
2023-01-09T06:16:45.697Z,3.40
2023-01-09T06:19:12.703Z,3.40
2023-01-09T06:21:41.045Z,3.40
2023-01-09T06:24:08.017Z,3.50
2023-01-09T06:26:35.288Z,3.50
2023-01-09T06:29:02.377Z,3.60
2023-01-09T06:31:29.308Z,3.70
2023-01-09T06:33:56.182Z,3.80
2023-01-09T06:36:23.294Z,4.20
2023-01-09T06:38:50.113Z,4.60
2023-01-09T06:41:17.316Z,4.80
2023-01-09T06:43:44.136Z,4.70
2023-01-09T06:46:11.169Z,4.40
2023-01-09T06:48:37.969Z,4.30
2023-01-09T06:51:04.925Z,4.20
2023-01-09T06:53:31.855Z,4.10
2023-01-09T06:55:59.081Z,4.00
2023-01-09T06:58:25.980Z,3.90
2023-01-09T07:00:53.688Z,3.90
2023-01-09T07:03:22.361Z,3.90
2023-01-09T07:05:49.771Z,4.00
2023-01-09T07:08:16.977Z,4.00
2023-01-09T07:10:44.619Z,4.10
2023-01-09T07:13:12.177Z,4.10
2023-01-09T07:15:39.338Z,4.00
2023-01-09T07:18:06.190Z,4.10
2023-01-09T07:20:33.589Z,4.10
2023-01-09T07:23:00.453Z,4.00
2023-01-09T07:25:27.625Z,4.10
2023-01-09T07:27:54.881Z,4.20
2023-01-09T07:30:21.698Z,4.20
2023-01-09T07:32:48.588Z,4.20
2023-01-09T07:35:15.539Z,4.20
2023-01-09T07:37:42.377Z,4.20
2023-01-09T07:40:10.242Z,4.30
2023-01-09T07:42:37.096Z,4.30
2023-01-09T07:45:04.567Z,4.30
2023-01-09T07:47:32.932Z,4.30
2023-01-09T07:50:01.907Z,4.30
2023-01-09T07:52:30.440Z,4.50
2023-01-09T07:54:59.775Z,4.40
2023-01-09T08:00:14.186Z,4.40
2023-01-09T08:02:41.960Z,4.50
2023-01-09T08:05:13.696Z,4.50
2023-01-09T08:07:41.145Z,4.70
2023-01-09T08:10:08.643Z,4.80
2023-01-09T08:12:35.535Z,4.80
2023-01-09T08:15:02.955Z,4.80
2023-01-09T08:17:29.778Z,4.90
2023-01-09T08:19:57.099Z,5.00
2023-01-09T08:22:24.115Z,5.20
2023-01-09T08:24:51.350Z,5.20
2023-01-09T08:27:18.123Z,5.00
2023-01-09T08:29:44.982Z,5.00
2023-01-09T08:32:11.775Z,5.10
2023-01-09T08:34:38.617Z,5.10
2023-01-09T08:37:07.674Z,5.10
2023-01-09T08:39:36.579Z,5.00
2023-01-09T08:42:22.864Z,5.00
2023-01-09T08:45:08.373Z,5.10
2023-01-09T08:47:35.657Z,5.10
2023-01-09T08:50:04.437Z,5.40
2023-01-09T08:52:31.368Z,5.40
2023-01-09T08:54:58.791Z,5.40
2023-01-09T08:57:25.829Z,5.40
2023-01-09T08:59:53.185Z,5.40
2023-01-09T09:02:20.063Z,5.20
2023-01-09T09:04:48.504Z,5.20
2023-01-09T09:07:15.291Z,5.30
2023-01-09T09:09:42.338Z,5.40
2023-01-09T09:12:09.243Z,5.50
2023-01-09T09:14:55.106Z,5.40
2023-01-09T09:17:22.623Z,5.50
2023-01-09T09:19:49.426Z,5.40
2023-01-09T09:22:16.672Z,5.40
2023-01-09T09:24:43.479Z,5.70
2023-01-09T09:27:10.384Z,5.90
2023-01-09T09:29:37.179Z,5.90
2023-01-09T09:32:04.535Z,6.10
2023-01-09T09:34:31.541Z,6.20
2023-01-09T09:37:01.068Z,6.40
2023-01-09T09:39:28.053Z,6.60
2023-01-09T09:42:43.506Z,6.80
2023-01-09T09:45:15.941Z,6.90
2023-01-09T09:47:51.965Z,6.60
2023-01-09T09:50:46.483Z,6.60
2023-01-09T09:53:27.313Z,6.80
2023-01-09T09:55:54.538Z,6.80
2023-01-09T09:58:39.027Z,7.10
2023-01-09T10:01:08.621Z,7.30
2023-01-09T10:03:47.023Z,7.70
2023-01-09T10:06:34.673Z,7.90
2023-01-09T10:09:14.677Z,8.00
2023-01-09T10:12:14.501Z,7.90
2023-01-09T10:14:41.793Z,7.90
2023-01-09T10:17:23.947Z,8.10
2023-01-09T10:20:30.537Z,8.00
2023-01-09T10:23:10.866Z,8.20
2023-01-09T10:26:05.248Z,8.50
2023-01-09T10:29:07.790Z,8.60
2023-01-09T10:31:41.169Z,8.70
2023-01-09T10:34:14.598Z,8.50
2023-01-09T10:36:51.710Z,8.60
2023-01-09T10:39:27.557Z,8.40
2023-01-09T10:42:20.833Z,8.70
2023-01-09T10:45:02.087Z,9.10
2023-01-09T10:47:40.241Z,9.20
2023-01-09T10:50:22.740Z,9.30
2023-01-09T10:52:52.267Z,9.50
2023-01-09T10:55:36.489Z,9.50
2023-01-09T10:58:11.399Z,9.60
2023-01-09T11:00:39.859Z,9.40
2023-01-09T11:03:10.962Z,9.40
2023-01-09T11:05:37.818Z,9.70
2023-01-09T11:08:14.098Z,9.80
2023-01-09T11:11:02.083Z,9.90
2023-01-09T11:13:34.377Z,10.10
2023-01-09T11:16:22.085Z,10.20
2023-01-09T11:18:58.813Z,10.40
2023-01-09T11:21:36.429Z,10.60
2023-01-09T11:24:21.897Z,10.60
2023-01-09T11:26:51.477Z,10.70
2023-01-09T11:29:21.346Z,10.80
2023-01-09T11:31:59.807Z,10.90
2023-01-09T11:34:33.050Z,10.90
2023-01-09T11:37:11.745Z,10.80
2023-01-09T11:39:41.940Z,10.90
2023-01-09T11:42:41.595Z,10.60
2023-01-09T11:45:14.989Z,10.70
2023-01-09T11:47:41.975Z,10.40
2023-01-09T11:50:17.070Z,10.40
2023-01-09T11:52:44.008Z,10.50
2023-01-09T11:55:18.925Z,10.50
2023-01-09T11:57:45.940Z,10.50
2023-01-09T12:00:37.699Z,10.40
2023-01-09T12:03:14.049Z,10.40
2023-01-09T12:06:22.407Z,10.10
2023-01-09T12:09:12.189Z,10.10
2023-01-09T12:11:55.916Z,10.00
2023-01-09T12:14:58.045Z,10.00
2023-01-09T12:17:43.005Z,9.90
2023-01-09T12:20:16.659Z,9.80
2023-01-09T12:23:05.655Z,9.80
2023-01-09T12:26:14.380Z,9.70
2023-01-09T12:28:59.812Z,9.80
2023-01-09T12:31:51.276Z,10.00
2023-01-09T12:34:30.341Z,10.00
2023-01-09T12:37:29.931Z,10.10
2023-01-09T12:40:06.503Z,9.90
2023-01-09T12:42:42.567Z,9.90
2023-01-09T12:45:33.329Z,9.90
2023-01-09T12:48:23.872Z,9.90
2023-01-09T12:51:01.963Z,9.90
2023-01-09T12:53:37.447Z,10.00
2023-01-09T12:56:09.954Z,10.00
2023-01-09T12:58:44.867Z,10.10
2023-01-09T13:01:18.670Z,10.00
2023-01-09T13:03:50.067Z,9.90
2023-01-09T13:06:19.433Z,10.00
2023-01-09T13:08:53.754Z,9.90
2023-01-09T13:11:24.252Z,9.80
2023-01-09T13:14:19.224Z,9.80
2023-01-09T13:16:53.227Z,9.70
2023-01-09T13:19:42.465Z,9.90
2023-01-09T13:22:14.534Z,9.80
2023-01-09T13:25:04.892Z,9.80
2023-01-09T13:27:36.421Z,9.80
2023-01-09T13:30:22.508Z,9.90
2023-01-09T13:33:08.269Z,10.00
2023-01-09T13:35:46.933Z,10.00
2023-01-09T13:38:19.927Z,10.00
2023-01-09T13:40:46.788Z,9.90
2023-01-09T13:43:17.148Z,10.10
2023-01-09T13:45:50.743Z,10.10
2023-01-09T13:48:24.713Z,10.00
2023-01-09T13:50:55.973Z,10.00
2023-01-09T13:53:27.233Z,10.20
2023-01-09T13:56:03.375Z,10.10
2023-01-09T13:58:31.997Z,9.90
2023-01-09T14:01:22.146Z,10.00
2023-01-09T14:04:24.505Z,9.80
2023-01-09T14:07:21.240Z,9.70
2023-01-09T14:09:53.144Z,9.60
2023-01-09T14:12:21.852Z,9.50
2023-01-09T14:14:49.518Z,9.50
2023-01-09T14:17:27.303Z,9.50
2023-01-09T14:20:00.174Z,9.40
2023-01-09T14:22:46.199Z,9.40
2023-01-09T14:25:26.139Z,9.30
2023-01-09T14:27:58.394Z,9.30
2023-01-09T14:30:30.196Z,9.20
2023-01-09T14:33:20.150Z,9.50
2023-01-09T14:36:13.244Z,9.60
2023-01-09T14:38:48.946Z,9.40
2023-01-09T14:41:15.785Z,9.40
2023-01-09T14:44:06.853Z,9.40
2023-01-09T14:46:39.303Z,9.40
2023-01-09T14:49:38.267Z,9.50
2023-01-09T14:52:32.037Z,9.50
2023-01-09T14:55:01.656Z,9.10
2023-01-09T14:57:29.980Z,9.00
2023-01-09T15:00:18.711Z,8.90
2023-01-09T15:02:47.006Z,8.80
2023-01-09T15:05:24.568Z,8.90
2023-01-09T15:08:04.776Z,8.80
2023-01-09T15:10:35.894Z,8.70
2023-01-09T15:13:07.671Z,8.60
2023-01-09T15:15:36.228Z,8.60
2023-01-09T15:18:07.151Z,8.60
2023-01-09T15:20:34.676Z,8.50
2023-01-09T15:23:04.263Z,8.50
2023-01-09T15:25:40.042Z,8.50
2023-01-09T15:28:27.199Z,8.60
2023-01-09T15:31:03.434Z,8.50
2023-01-09T15:33:31.338Z,8.50
2023-01-09T15:36:02.613Z,8.40
2023-01-09T15:38:32.723Z,8.20
2023-01-09T15:41:04.672Z,8.20
2023-01-09T15:43:32.101Z,8.20
2023-01-09T15:46:00.875Z,8.30
2023-01-09T15:48:34.026Z,8.30
2023-01-09T15:51:05.243Z,8.40
2023-01-09T15:53:35.916Z,8.40
2023-01-09T15:56:08.065Z,8.30
2023-01-09T15:58:37.724Z,8.30
2023-01-09T16:01:35.025Z,8.20
2023-01-09T16:04:13.501Z,8.40
2023-01-09T16:06:51.357Z,8.50
2023-01-09T16:09:26.893Z,8.60
2023-01-09T16:12:00.899Z,8.60
2023-01-09T16:14:38.955Z,8.40
2023-01-09T16:17:12.255Z,8.40
2023-01-09T16:19:50.175Z,8.40
2023-01-09T16:22:32.028Z,8.60
2023-01-09T16:25:01.242Z,8.50
2023-01-09T16:27:31.367Z,8.40
2023-01-09T16:30:00.557Z,8.30
2023-01-09T16:32:37.123Z,8.40
2023-01-09T16:35:07.731Z,8.60
2023-01-09T16:37:34.857Z,8.70
2023-01-09T16:40:18.173Z,8.70
2023-01-09T16:43:02.118Z,8.70
2023-01-09T16:45:40.603Z,8.30
2023-01-09T16:48:20.112Z,7.90
2023-01-09T16:50:47.224Z,8.10
2023-01-09T16:53:22.007Z,8.20
2023-01-09T16:55:49.499Z,8.10
2023-01-09T16:58:22.944Z,8.20
2023-01-09T17:00:49.897Z,8.30
2023-01-09T17:03:17.714Z,8.40
2023-01-09T17:05:44.830Z,8.50
2023-01-09T17:08:27.271Z,8.40
2023-01-09T17:10:55.835Z,8.60
2023-01-09T17:13:23.503Z,8.60
2023-01-09T17:15:52.917Z,8.70
2023-01-09T17:18:22.086Z,8.70
2023-01-09T17:20:52.392Z,8.70
2023-01-09T17:23:23.466Z,8.60
2023-01-09T17:26:12.321Z,8.50
2023-01-09T17:28:43.705Z,8.50
2023-01-09T17:31:13.504Z,8.30
2023-01-09T17:33:41.915Z,8.40
2023-01-09T17:36:34.760Z,8.30
2023-01-09T17:39:02.180Z,8.10
2023-01-09T17:41:31.300Z,7.90
2023-01-09T17:43:59.345Z,8.00
2023-01-09T17:46:33.245Z,8.10
2023-01-09T17:49:03.282Z,7.90
2023-01-09T17:51:30.487Z,7.90
2023-01-09T17:54:00.171Z,8.10
2023-01-09T17:56:34.958Z,8.00
2023-01-09T17:59:05.003Z,8.10
2023-01-09T18:01:32.685Z,8.20
2023-01-09T18:03:59.659Z,8.10
2023-01-09T18:06:26.850Z,8.10
2023-01-09T18:08:55.712Z,8.00
2023-01-09T18:11:24.533Z,8.00
2023-01-09T18:13:56.362Z,7.90
2023-01-09T18:16:26.182Z,7.90
2023-01-09T18:18:54.553Z,7.90
2023-01-09T18:21:23.589Z,7.90
2023-01-09T18:23:50.587Z,8.00
2023-01-09T18:26:22.340Z,7.90
2023-01-09T18:28:52.377Z,7.70
2023-01-09T18:31:22.906Z,7.80
2023-01-09T18:33:54.216Z,7.70
2023-01-09T18:36:24.261Z,7.70
2023-01-09T18:38:53.630Z,7.60
2023-01-09T18:41:21.936Z,7.70
2023-01-09T18:43:53.981Z,7.60
2023-01-09T18:46:24.979Z,7.40
2023-01-09T18:48:56.215Z,7.30
2023-01-09T18:51:25.410Z,7.30
2023-01-09T18:53:52.548Z,7.40
2023-01-09T18:56:20.617Z,7.30
2023-01-09T18:58:49.215Z,7.30
2023-01-09T19:01:17.503Z,7.30
2023-01-09T19:03:45.245Z,7.20
2023-01-09T19:06:13.493Z,7.20
2023-01-09T19:08:40.452Z,7.20
2023-01-09T19:11:07.323Z,7.10
2023-01-09T19:13:36.588Z,7.00
2023-01-09T19:16:05.177Z,7.00
2023-01-09T19:18:38.187Z,6.90
2023-01-09T19:21:16.393Z,6.80
2023-01-09T19:23:44.338Z,6.80
2023-01-09T19:26:17.795Z,6.90
2023-01-09T19:28:46.651Z,6.70
2023-01-09T19:31:14.765Z,6.80
2023-01-09T19:33:41.719Z,6.70
2023-01-09T19:36:09.840Z,6.70
2023-01-09T19:38:36.869Z,6.60
2023-01-09T19:41:13.391Z,6.60
2023-01-09T19:43:44.105Z,6.60
2023-01-09T19:46:14.291Z,6.50
2023-01-09T19:48:43.782Z,6.60
2023-01-09T19:51:12.794Z,6.50
2023-01-09T19:53:40.798Z,6.50
2023-01-09T19:56:19.408Z,6.50
2023-01-09T19:58:52.013Z,6.60
2023-01-09T20:01:27.264Z,6.50
2023-01-09T20:03:56.544Z,6.60
2023-01-09T20:06:25.529Z,6.60
2023-01-09T20:08:57.639Z,6.50
2023-01-09T20:11:28.657Z,6.50
2023-01-09T20:13:56.234Z,6.60
2023-01-09T20:16:28.918Z,6.70
2023-01-09T20:19:03.676Z,6.80
2023-01-09T20:21:31.011Z,7.00
2023-01-09T20:24:01.528Z,7.20
2023-01-09T20:26:29.276Z,7.30
2023-01-09T20:28:57.427Z,7.30
2023-01-09T20:31:28.262Z,7.40
2023-01-09T20:33:55.562Z,7.50
2023-01-09T20:36:27.805Z,7.60
2023-01-09T20:38:55.433Z,7.50
2023-01-09T20:41:23.273Z,7.30
2023-01-09T20:44:11.865Z,7.30
2023-01-09T20:46:41.101Z,7.30
2023-01-09T20:49:11.891Z,7.50
2023-01-09T20:51:47.454Z,7.70
2023-01-09T20:54:15.273Z,7.80
2023-01-09T20:56:42.552Z,8.10
2023-01-09T20:59:18.818Z,8.00
2023-01-09T21:01:46.385Z,8.00
2023-01-09T21:04:13.438Z,7.70
2023-01-09T21:06:44.420Z,7.70
2023-01-09T21:09:11.555Z,7.70
2023-01-09T21:14:25.885Z,7.70
2023-01-09T21:16:55.288Z,7.90
2023-01-09T21:19:23.353Z,8.10
2023-01-09T21:21:53.210Z,8.10
2023-01-09T21:24:20.994Z,8.00
2023-01-09T21:26:47.845Z,8.10
2023-01-09T21:29:20.364Z,8.10
2023-01-09T21:31:48.125Z,8.00
2023-01-09T21:34:19.008Z,8.00
2023-01-09T21:36:50.319Z,7.80
2023-01-09T21:39:25.050Z,8.00
2023-01-09T21:42:24.950Z,8.00
2023-01-09T21:45:10.570Z,7.90
2023-01-09T21:47:37.616Z,7.90
2023-01-09T21:50:20.224Z,8.00
2023-01-09T21:55:25.723Z,8.10
2023-01-09T21:58:20.664Z,8.10
2023-01-09T22:00:49.842Z,8.10
2023-01-09T22:05:48.933Z,8.10
2023-01-09T22:08:15.838Z,8.10
2023-01-09T22:10:42.667Z,8.20
2023-01-09T22:13:18.502Z,8.30
2023-01-09T22:15:52.283Z,8.10
2023-01-09T22:18:19.828Z,8.10
2023-01-09T22:20:46.681Z,8.20
2023-01-09T22:23:13.549Z,8.20
2023-01-09T22:25:42.043Z,8.10
2023-01-09T22:28:10.827Z,8.20
2023-01-09T22:30:41.698Z,8.20
2023-01-09T22:33:11.384Z,8.30
2023-01-09T22:35:40.057Z,8.30
2023-01-09T22:38:07.642Z,8.30
2023-01-09T22:40:34.848Z,8.40
2023-01-09T22:43:01.642Z,8.20
2023-01-09T22:45:29.847Z,8.20
2023-01-09T22:47:57.639Z,8.20
2023-01-09T22:50:25.153Z,8.20
2023-01-09T22:52:52.278Z,8.30
2023-01-09T22:55:19.129Z,8.10
2023-01-09T22:57:45.967Z,8.20
2023-01-09T23:00:14.081Z,8.30
2023-01-09T23:02:41.470Z,8.30
2023-01-09T23:05:24.587Z,8.40
2023-01-09T23:07:51.886Z,8.30
2023-01-09T23:10:22.285Z,8.20
2023-01-09T23:12:50.441Z,8.30
2023-01-09T23:15:40.553Z,8.10
2023-01-09T23:18:08.415Z,8.20
2023-01-09T23:20:35.191Z,8.20
2023-01-09T23:23:02.217Z,8.20
2023-01-09T23:25:29.484Z,8.10
2023-01-09T23:27:56.287Z,8.10
2023-01-09T23:30:23.575Z,8.00
2023-01-09T23:32:51.003Z,8.10
2023-01-09T23:35:17.880Z,8.10
2023-01-09T23:37:44.685Z,8.00
2023-01-09T23:40:13.304Z,7.90
2023-01-09T23:42:59.105Z,8.00
2023-01-09T23:45:25.942Z,8.00
2023-01-09T23:47:53.159Z,8.00
2023-01-09T23:50:19.944Z,8.00
2023-01-09T23:52:46.749Z,7.90
2023-01-09T23:55:14.871Z,7.90
2023-01-09T23:57:42.198Z,7.90
